sensor_id;sensor_type;location;lat;lon;timestamp;P1;durP1;ratioP1;P2;durP2;ratioP2
53642;SDS011;39546;45.534;12.048;2023-06-22T00:05:57;6.85;;;4.15;;
53642;SDS011;39546;45.534;12.048;2023-06-22T00:11:59;5.70;;;3.70;;
53642;SDS011;39546;45.534;12.048;2023-06-22T00:18:02;5.78;;;4.07;;
53642;SDS011;39546;45.534;12.048;2023-06-22T00:24:04;6.70;;;4.22;;
53642;SDS011;39546;45.534;12.048;2023-06-22T00:30:07;7.78;;;3.45;;
53642;SDS011;39546;45.534;12.048;2023-06-22T00:36:09;5.68;;;3.97;;
53642;SDS011;39546;45.534;12.048;2023-06-22T00:42:30;6.45;;;3.60;;
53642;SDS011;39546;45.534;12.048;2023-06-22T00:48:32;5.62;;;3.25;;
53642;SDS011;39546;45.534;12.048;2023-06-22T00:54:35;5.35;;;3.95;;
53642;SDS011;39546;45.534;12.048;2023-06-22T01:00:38;5.10;;;3.47;;
53642;SDS011;39546;45.534;12.048;2023-06-22T01:06:44;8.88;;;3.70;;
53642;SDS011;39546;45.534;12.048;2023-06-22T01:12:55;5.55;;;3.83;;
53642;SDS011;39546;45.534;12.048;2023-06-22T01:19:09;5.00;;;3.45;;
53642;SDS011;39546;45.534;12.048;2023-06-22T01:32:08;5.45;;;3.95;;
53642;SDS011;39546;45.534;12.048;2023-06-22T01:38:12;7.87;;;4.95;;
53642;SDS011;39546;45.534;12.048;2023-06-22T01:44:15;9.23;;;5.03;;
53642;SDS011;39546;45.534;12.048;2023-06-22T01:50:17;7.30;;;5.50;;
53642;SDS011;39546;45.534;12.048;2023-06-22T01:56:19;6.97;;;4.57;;
53642;SDS011;39546;45.534;12.048;2023-06-22T02:02:22;9.13;;;6.80;;
53642;SDS011;39546;45.534;12.048;2023-06-22T02:08:47;5.75;;;4.68;;
53642;SDS011;39546;45.534;12.048;2023-06-22T02:14:53;5.93;;;4.37;;
53642;SDS011;39546;45.534;12.048;2023-06-22T02:20:55;6.32;;;4.85;;
53642;SDS011;39546;45.534;12.048;2023-06-22T02:26:58;7.82;;;5.93;;
53642;SDS011;39546;45.534;12.048;2023-06-22T02:33:01;6.95;;;5.15;;
53642;SDS011;39546;45.534;12.048;2023-06-22T02:39:03;6.50;;;4.85;;
53642;SDS011;39546;45.534;12.048;2023-06-22T02:45:05;6.25;;;4.78;;
53642;SDS011;39546;45.534;12.048;2023-06-22T02:51:08;8.30;;;5.45;;
53642;SDS011;39546;45.534;12.048;2023-06-22T02:57:11;6.00;;;4.43;;
53642;SDS011;39546;45.534;12.048;2023-06-22T03:03:15;7.47;;;5.28;;
53642;SDS011;39546;45.534;12.048;2023-06-22T03:09:17;6.80;;;4.82;;
53642;SDS011;39546;45.534;12.048;2023-06-22T03:15:19;8.98;;;5.53;;
53642;SDS011;39546;45.534;12.048;2023-06-22T03:21:26;5.87;;;4.57;;
53642;SDS011;39546;45.534;12.048;2023-06-22T03:27:30;8.20;;;5.87;;
53642;SDS011;39546;45.534;12.048;2023-06-22T03:33:32;7.65;;;5.32;;
53642;SDS011;39546;45.534;12.048;2023-06-22T03:39:34;8.82;;;6.47;;
53642;SDS011;39546;45.534;12.048;2023-06-22T03:45:36;8.35;;;5.60;;
53642;SDS011;39546;45.534;12.048;2023-06-22T03:51:38;9.98;;;6.93;;
53642;SDS011;39546;45.534;12.048;2023-06-22T03:57:47;8.20;;;6.35;;
53642;SDS011;39546;45.534;12.048;2023-06-22T04:03:51;8.45;;;6.62;;
53642;SDS011;39546;45.534;12.048;2023-06-22T04:09:54;8.05;;;6.30;;
53642;SDS011;39546;45.534;12.048;2023-06-22T04:15:56;10.32;;;7.82;;
53642;SDS011;39546;45.534;12.048;2023-06-22T04:21:58;8.82;;;7.30;;
53642;SDS011;39546;45.534;12.048;2023-06-22T04:28:00;9.77;;;7.80;;
53642;SDS011;39546;45.534;12.048;2023-06-22T04:34:05;11.32;;;7.72;;
53642;SDS011;39546;45.534;12.048;2023-06-22T04:40:08;13.27;;;5.87;;
53642;SDS011;39546;45.534;12.048;2023-06-22T04:46:10;8.82;;;7.15;;
53642;SDS011;39546;45.534;12.048;2023-06-22T04:52:13;8.43;;;6.03;;
53642;SDS011;39546;45.534;12.048;2023-06-22T04:58:21;11.45;;;8.27;;
53642;SDS011;39546;45.534;12.048;2023-06-22T05:04:23;9.65;;;7.03;;
53642;SDS011;39546;45.534;12.048;2023-06-22T05:10:26;8.65;;;7.00;;
53642;SDS011;39546;45.534;12.048;2023-06-22T05:16:28;12.57;;;7.80;;
53642;SDS011;39546;45.534;12.048;2023-06-22T05:22:30;11.00;;;8.20;;
53642;SDS011;39546;45.534;12.048;2023-06-22T05:28:32;11.55;;;7.03;;
53642;SDS011;39546;45.534;12.048;2023-06-22T05:34:34;10.18;;;7.45;;
53642;SDS011;39546;45.534;12.048;2023-06-22T05:40:37;13.13;;;10.98;;
53642;SDS011;39546;45.534;12.048;2023-06-22T05:46:40;11.23;;;8.27;;
53642;SDS011;39546;45.534;12.048;2023-06-22T05:52:45;15.03;;;11.10;;
53642;SDS011;39546;45.534;12.048;2023-06-22T05:58:47;9.23;;;7.62;;
53642;SDS011;39546;45.534;12.048;2023-06-22T06:04:50;8.70;;;6.18;;
53642;SDS011;39546;45.534;12.048;2023-06-22T06:11:03;10.40;;;7.87;;
53642;SDS011;39546;45.534;12.048;2023-06-22T06:17:05;10.45;;;7.95;;
53642;SDS011;39546;45.534;12.048;2023-06-22T06:23:07;9.18;;;7.05;;
53642;SDS011;39546;45.534;12.048;2023-06-22T06:29:09;13.02;;;8.50;;
53642;SDS011;39546;45.534;12.048;2023-06-22T06:35:11;12.45;;;7.43;;
53642;SDS011;39546;45.534;12.048;2023-06-22T06:41:15;10.13;;;7.65;;
53642;SDS011;39546;45.534;12.048;2023-06-22T06:47:19;12.02;;;6.97;;
53642;SDS011;39546;45.534;12.048;2023-06-22T06:53:21;7.68;;;5.45;;
53642;SDS011;39546;45.534;12.048;2023-06-22T06:59:23;8.93;;;6.57;;
53642;SDS011;39546;45.534;12.048;2023-06-22T07:05:25;9.98;;;6.55;;
53642;SDS011;39546;45.534;12.048;2023-06-22T07:11:27;6.28;;;4.20;;
53642;SDS011;39546;45.534;12.048;2023-06-22T07:17:29;6.37;;;4.37;;
53642;SDS011;39546;45.534;12.048;2023-06-22T07:23:31;10.57;;;6.18;;
53642;SDS011;39546;45.534;12.048;2023-06-22T07:29:33;8.70;;;5.37;;
53642;SDS011;39546;45.534;12.048;2023-06-22T07:35:37;9.27;;;6.25;;
53642;SDS011;39546;45.534;12.048;2023-06-22T07:41:40;6.87;;;4.80;;
53642;SDS011;39546;45.534;12.048;2023-06-22T07:47:42;8.70;;;5.30;;
53642;SDS011;39546;45.534;12.048;2023-06-22T07:53:44;6.30;;;4.47;;
53642;SDS011;39546;45.534;12.048;2023-06-22T07:59:46;7.93;;;5.05;;
53642;SDS011;39546;45.534;12.048;2023-06-22T08:05:48;7.93;;;4.60;;
53642;SDS011;39546;45.534;12.048;2023-06-22T08:11:51;8.25;;;5.75;;
53642;SDS011;39546;45.534;12.048;2023-06-22T08:17:53;8.15;;;5.07;;
53642;SDS011;39546;45.534;12.048;2023-06-22T08:23:55;7.87;;;6.00;;
53642;SDS011;39546;45.534;12.048;2023-06-22T08:30:00;8.10;;;5.37;;
53642;SDS011;39546;45.534;12.048;2023-06-22T08:36:07;7.90;;;5.72;;
53642;SDS011;39546;45.534;12.048;2023-06-22T08:42:12;14.30;;;6.68;;
53642;SDS011;39546;45.534;12.048;2023-06-22T08:48:14;8.55;;;6.25;;
53642;SDS011;39546;45.534;12.048;2023-06-22T08:54:17;8.00;;;5.30;;
53642;SDS011;39546;45.534;12.048;2023-06-22T09:00:19;7.80;;;4.95;;
53642;SDS011;39546;45.534;12.048;2023-06-22T09:12:47;5.85;;;4.37;;
53642;SDS011;39546;45.534;12.048;2023-06-22T09:18:49;10.02;;;5.12;;
53642;SDS011;39546;45.534;12.048;2023-06-22T09:24:52;7.87;;;5.12;;
53642;SDS011;39546;45.534;12.048;2023-06-22T09:31:09;9.48;;;4.78;;
53642;SDS011;39546;45.534;12.048;2023-06-22T09:37:11;9.13;;;6.35;;
53642;SDS011;39546;45.534;12.048;2023-06-22T09:49:37;12.10;;;5.55;;
53642;SDS011;39546;45.534;12.048;2023-06-22T09:55:39;10.63;;;6.80;;
53642;SDS011;39546;45.534;12.048;2023-06-22T10:01:41;6.25;;;4.78;;
53642;SDS011;39546;45.534;12.048;2023-06-22T10:14:41;9.82;;;6.90;;
53642;SDS011;39546;45.534;12.048;2023-06-22T10:20:44;9.60;;;5.43;;
53642;SDS011;39546;45.534;12.048;2023-06-22T10:26:50;9.43;;;6.90;;
53642;SDS011;39546;45.534;12.048;2023-06-22T10:32:52;11.63;;;5.60;;
53642;SDS011;39546;45.534;12.048;2023-06-22T10:38:54;10.13;;;5.85;;
53642;SDS011;39546;45.534;12.048;2023-06-22T10:44:57;7.68;;;5.50;;
53642;SDS011;39546;45.534;12.048;2023-06-22T10:50:59;9.55;;;6.72;;
53642;SDS011;39546;45.534;12.048;2023-06-22T10:57:01;7.82;;;5.53;;
53642;SDS011;39546;45.534;12.048;2023-06-22T11:03:04;5.85;;;4.60;;
53642;SDS011;39546;45.534;12.048;2023-06-22T11:09:06;7.15;;;4.68;;
53642;SDS011;39546;45.534;12.048;2023-06-22T11:15:08;7.32;;;5.60;;
53642;SDS011;39546;45.534;12.048;2023-06-22T11:21:10;10.15;;;6.18;;
53642;SDS011;39546;45.534;12.048;2023-06-22T11:27:13;10.63;;;6.03;;
53642;SDS011;39546;45.534;12.048;2023-06-22T11:33:15;8.40;;;4.95;;
53642;SDS011;39546;45.534;12.048;2023-06-22T11:39:17;8.77;;;5.22;;
53642;SDS011;39546;45.534;12.048;2023-06-22T11:45:19;10.55;;;6.62;;
53642;SDS011;39546;45.534;12.048;2023-06-22T11:51:21;6.32;;;4.22;;
53642;SDS011;39546;45.534;12.048;2023-06-22T11:57:23;8.63;;;5.18;;
53642;SDS011;39546;45.534;12.048;2023-06-22T12:03:26;12.13;;;5.00;;
53642;SDS011;39546;45.534;12.048;2023-06-22T12:09:28;8.80;;;4.57;;
53642;SDS011;39546;45.534;12.048;2023-06-22T12:15:30;11.32;;;6.20;;
53642;SDS011;39546;45.534;12.048;2023-06-22T12:21:32;8.77;;;5.70;;
53642;SDS011;39546;45.534;12.048;2023-06-22T12:27:35;8.10;;;5.53;;
53642;SDS011;39546;45.534;12.048;2023-06-22T12:33:37;6.95;;;4.62;;
53642;SDS011;39546;45.534;12.048;2023-06-22T12:39:43;9.10;;;4.87;;
53642;SDS011;39546;45.534;12.048;2023-06-22T12:45:45;7.60;;;4.97;;
53642;SDS011;39546;45.534;12.048;2023-06-22T12:51:47;5.68;;;4.20;;
53642;SDS011;39546;45.534;12.048;2023-06-22T12:57:49;11.02;;;4.55;;
53642;SDS011;39546;45.534;12.048;2023-06-22T13:03:51;8.32;;;4.45;;
53642;SDS011;39546;45.534;12.048;2023-06-22T13:09:53;7.10;;;4.80;;
53642;SDS011;39546;45.534;12.048;2023-06-22T13:15:55;12.95;;;4.85;;
53642;SDS011;39546;45.534;12.048;2023-06-22T13:21:58;6.28;;;3.87;;
53642;SDS011;39546;45.534;12.048;2023-06-22T13:28:01;7.82;;;4.62;;
53642;SDS011;39546;45.534;12.048;2023-06-22T13:34:03;11.93;;;4.40;;
53642;SDS011;39546;45.534;12.048;2023-06-22T13:40:05;6.85;;;3.55;;
53642;SDS011;39546;45.534;12.048;2023-06-22T13:46:08;7.15;;;4.35;;
53642;SDS011;39546;45.534;12.048;2023-06-22T13:52:10;5.37;;;3.33;;
53642;SDS011;39546;45.534;12.048;2023-06-22T13:58:14;7.35;;;4.90;;
53642;SDS011;39546;45.534;12.048;2023-06-22T14:04:16;6.55;;;3.97;;
53642;SDS011;39546;45.534;12.048;2023-06-22T14:10:18;8.05;;;3.00;;
53642;SDS011;39546;45.534;12.048;2023-06-22T14:16:20;5.07;;;3.30;;
53642;SDS011;39546;45.534;12.048;2023-06-22T14:22:22;11.12;;;4.25;;
53642;SDS011;39546;45.534;12.048;2023-06-22T14:28:24;6.50;;;4.20;;
53642;SDS011;39546;45.534;12.048;2023-06-22T14:34:26;6.12;;;4.47;;
53642;SDS011;39546;45.534;12.048;2023-06-22T14:40:28;13.65;;;4.53;;
53642;SDS011;39546;45.534;12.048;2023-06-22T14:46:30;8.82;;;4.37;;
53642;SDS011;39546;45.534;12.048;2023-06-22T14:52:32;5.70;;;3.67;;
53642;SDS011;39546;45.534;12.048;2023-06-22T14:58:35;8.82;;;4.85;;
53642;SDS011;39546;45.534;12.048;2023-06-22T15:04:37;4.10;;;2.97;;
53642;SDS011;39546;45.534;12.048;2023-06-22T15:10:39;5.50;;;3.45;;
53642;SDS011;39546;45.534;12.048;2023-06-22T15:16:41;10.40;;;4.32;;
53642;SDS011;39546;45.534;12.048;2023-06-22T15:22:43;8.52;;;3.83;;
53642;SDS011;39546;45.534;12.048;2023-06-22T15:28:45;6.03;;;3.85;;
53642;SDS011;39546;45.534;12.048;2023-06-22T15:34:47;5.37;;;3.70;;
53642;SDS011;39546;45.534;12.048;2023-06-22T15:40:51;7.15;;;3.30;;
53642;SDS011;39546;45.534;12.048;2023-06-22T15:46:53;8.88;;;3.17;;
53642;SDS011;39546;45.534;12.048;2023-06-22T15:52:55;7.60;;;3.92;;
53642;SDS011;39546;45.534;12.048;2023-06-22T15:58:57;5.22;;;3.42;;
53642;SDS011;39546;45.534;12.048;2023-06-22T16:04:59;7.00;;;4.45;;
53642;SDS011;39546;45.534;12.048;2023-06-22T16:11:02;4.37;;;2.62;;
53642;SDS011;39546;45.534;12.048;2023-06-22T16:17:04;10.55;;;2.65;;
53642;SDS011;39546;45.534;12.048;2023-06-22T16:23:07;8.57;;;4.93;;
53642;SDS011;39546;45.534;12.048;2023-06-22T16:29:10;4.62;;;2.85;;
53642;SDS011;39546;45.534;12.048;2023-06-22T16:35:12;9.43;;;3.42;;
53642;SDS011;39546;45.534;12.048;2023-06-22T16:41:16;5.37;;;2.75;;
53642;SDS011;39546;45.534;12.048;2023-06-22T16:47:18;5.45;;;3.22;;
53642;SDS011;39546;45.534;12.048;2023-06-22T16:53:20;13.02;;;5.68;;
53642;SDS011;39546;45.534;12.048;2023-06-22T16:59:23;5.60;;;3.10;;
53642;SDS011;39546;45.534;12.048;2023-06-22T17:05:26;7.37;;;3.67;;
53642;SDS011;39546;45.534;12.048;2023-06-22T17:11:28;7.18;;;3.35;;
53642;SDS011;39546;45.534;12.048;2023-06-22T17:17:31;7.15;;;4.07;;
53642;SDS011;39546;45.534;12.048;2023-06-22T17:23:35;5.87;;;3.70;;
53642;SDS011;39546;45.534;12.048;2023-06-22T17:29:37;8.13;;;3.10;;
53642;SDS011;39546;45.534;12.048;2023-06-22T17:35:45;7.20;;;2.75;;
53642;SDS011;39546;45.534;12.048;2023-06-22T17:41:50;6.35;;;2.67;;
53642;SDS011;39546;45.534;12.048;2023-06-22T17:47:52;5.62;;;2.67;;
53642;SDS011;39546;45.534;12.048;2023-06-22T17:53:56;4.78;;;2.62;;
53642;SDS011;39546;45.534;12.048;2023-06-22T17:59:58;4.87;;;2.65;;
53642;SDS011;39546;45.534;12.048;2023-06-22T18:06:00;3.28;;;2.70;;
53642;SDS011;39546;45.534;12.048;2023-06-22T18:12:02;20.40;;;3.03;;
53642;SDS011;39546;45.534;12.048;2023-06-22T18:18:07;5.12;;;2.42;;
53642;SDS011;39546;45.534;12.048;2023-06-22T18:24:09;3.83;;;2.08;;
53642;SDS011;39546;45.534;12.048;2023-06-22T18:30:13;4.00;;;2.42;;
53642;SDS011;39546;45.534;12.048;2023-06-22T18:36:18;4.03;;;1.87;;
53642;SDS011;39546;45.534;12.048;2023-06-22T18:42:24;3.15;;;2.22;;
53642;SDS011;39546;45.534;12.048;2023-06-22T18:48:29;3.90;;;2.30;;
53642;SDS011;39546;45.534;12.048;2023-06-22T18:54:41;3.83;;;2.50;;
53642;SDS011;39546;45.534;12.048;2023-06-22T19:00:45;3.05;;;1.75;;
53642;SDS011;39546;45.534;12.048;2023-06-22T19:06:56;4.72;;;2.35;;
53642;SDS011;39546;45.534;12.048;2023-06-22T19:19:13;6.60;;;1.95;;
53642;SDS011;39546;45.534;12.048;2023-06-22T19:25:18;3.47;;;2.00;;
53642;SDS011;39546;45.534;12.048;2023-06-22T19:31:24;7.67;;;3.07;;
53642;SDS011;39546;45.534;12.048;2023-06-22T19:37:28;2.70;;;2.05;;
53642;SDS011;39546;45.534;12.048;2023-06-22T19:43:30;3.45;;;1.75;;
53642;SDS011;39546;45.534;12.048;2023-06-22T19:49:33;4.72;;;2.72;;
53642;SDS011;39546;45.534;12.048;2023-06-22T19:55:39;4.22;;;2.55;;
53642;SDS011;39546;45.534;12.048;2023-06-22T20:01:43;7.55;;;1.83;;
53642;SDS011;39546;45.534;12.048;2023-06-22T20:07:45;5.35;;;2.75;;
53642;SDS011;39546;45.534;12.048;2023-06-22T20:13:51;4.43;;;2.15;;
53642;SDS011;39546;45.534;12.048;2023-06-22T20:19:54;4.75;;;2.70;;
53642;SDS011;39546;45.534;12.048;2023-06-22T20:25:56;3.83;;;2.00;;
53642;SDS011;39546;45.534;12.048;2023-06-22T20:38:08;3.67;;;2.17;;
53642;SDS011;39546;45.534;12.048;2023-06-22T20:44:11;4.75;;;2.45;;
53642;SDS011;39546;45.534;12.048;2023-06-22T20:50:13;3.65;;;2.53;;
53642;SDS011;39546;45.534;12.048;2023-06-22T20:56:15;5.12;;;2.87;;
53642;SDS011;39546;45.534;12.048;2023-06-22T21:02:17;9.52;;;2.72;;
53642;SDS011;39546;45.534;12.048;2023-06-22T21:08:20;4.87;;;3.30;;
53642;SDS011;39546;45.534;12.048;2023-06-22T21:14:22;8.38;;;3.22;;
53642;SDS011;39546;45.534;12.048;2023-06-22T21:20:24;6.87;;;2.72;;
53642;SDS011;39546;45.534;12.048;2023-06-22T21:26:26;5.87;;;3.15;;
53642;SDS011;39546;45.534;12.048;2023-06-22T21:32:28;3.50;;;2.20;;
53642;SDS011;39546;45.534;12.048;2023-06-22T21:38:30;3.95;;;2.30;;
53642;SDS011;39546;45.534;12.048;2023-06-22T21:44:32;4.22;;;2.95;;
53642;SDS011;39546;45.534;12.048;2023-06-22T21:50:34;5.00;;;2.65;;
53642;SDS011;39546;45.534;12.048;2023-06-22T21:56:37;6.28;;;3.40;;
53642;SDS011;39546;45.534;12.048;2023-06-22T22:02:39;5.50;;;3.53;;
53642;SDS011;39546;45.534;12.048;2023-06-22T22:08:41;4.65;;;3.17;;
53642;SDS011;39546;45.534;12.048;2023-06-22T22:14:43;9.10;;;4.37;;
53642;SDS011;39546;45.534;12.048;2023-06-22T22:20:47;6.70;;;4.10;;
53642;SDS011;39546;45.534;12.048;2023-06-22T22:26:49;4.50;;;3.15;;
53642;SDS011;39546;45.534;12.048;2023-06-22T22:32:51;6.55;;;3.65;;
53642;SDS011;39546;45.534;12.048;2023-06-22T22:38:52;5.35;;;3.92;;
53642;SDS011;39546;45.534;12.048;2023-06-22T22:44:54;4.70;;;3.30;;
53642;SDS011;39546;45.534;12.048;2023-06-22T22:50:59;5.72;;;3.53;;
53642;SDS011;39546;45.534;12.048;2023-06-22T22:57:01;5.45;;;3.05;;
53642;SDS011;39546;45.534;12.048;2023-06-22T23:03:03;5.45;;;2.65;;
53642;SDS011;39546;45.534;12.048;2023-06-22T23:09:05;8.07;;;3.85;;
53642;SDS011;39546;45.534;12.048;2023-06-22T23:15:08;5.00;;;3.60;;
53642;SDS011;39546;45.534;12.048;2023-06-22T23:21:11;4.30;;;3.37;;
53642;SDS011;39546;45.534;12.048;2023-06-22T23:27:13;7.90;;;4.03;;
53642;SDS011;39546;45.534;12.048;2023-06-22T23:33:16;7.47;;;4.78;;
53642;SDS011;39546;45.534;12.048;2023-06-22T23:39:18;6.53;;;4.37;;
53642;SDS011;39546;45.534;12.048;2023-06-22T23:45:21;6.15;;;3.95;;
53642;SDS011;39546;45.534;12.048;2023-06-22T23:51:56;5.37;;;3.55;;
53642;SDS011;39546;45.534;12.048;2023-06-22T23:57:58;5.82;;;4.30;;
